Inca Manco Capac International Airport
SPJL : rendu visible

Aérodrome :











RETROUVEZ-NOUS SUR...

 
LOGIN :

S'inscrire | Disclaimer

   EN    FR    IT 

 









Légende :    VFR   VFR Marginal   IFR   IFR Intensif   IFR Très Intensif
Visi : 
Plafond : 
>= 8 km
>= 3000ft
5 à 8 km
1000 à 3000 ft
1500m à 5 km
500 à 1000 ft
800 à 1500m
200 à 500 ft
< 800m
< 200 ft
Symboles :   Orages  Brouillard  Fortes neiges  Fortes précipitations  Vent > 20 kt






- Altitude de l'aérodrome : 12552 ft
- Code IATA : JUL


SPJL - Inca Manco Capac International

DERNIER METAR :
  • 261100Z 00000KT 9999 FEW010 SCT080 09/07 Q1035 RMK PP000

TAF COR TAF SPJL
Valide du 26 à 00h jusqu'au 27 à 00h UTC


252300Z 2600/2624 26005KT 8000 RA BKN010 BKN080 TX17/2618Z TN06/2610Z
TEMPO 2607/2611 TSGR BKN008 OVC070
FM261300 04005KT 9999 SCT017



MET'MAP, la Météo Aéronautique d'un coup d'oeil ! - Copyright ORBIFLY Décembre 2007 - Disclaimer

ORBIFLY MET'MAP TEAM :

Programmation & Développement : Alexandra Zaïnal
Sur une idée originale de : Baudouin d'Aumeries
Assistance à la programmation : Marc-Olivier Méhu
Soutien technique & logistique : Manuel Goepfert

Contact : metmap@orbifly.com




SOURCES & CREDITS :

   NOAA       Earth
Advisory